Chaptico, Maryland
Current Conditions -  °F | °C
As of 2:52 AM on Friday 19 Dec 2014 (Local Time) from K2W6 Reporting Station
Overcast Overcast  
Wind Chill: 34°   Ceiling: 10000
Heat Index: 34°   Visibility: 10mi
Dew Point: 23°   Wind: 3mph
Humidity: 65%   Direction: 300°WNW
Pressure: 30.13"   Gusts: NA
Location:  38.37°N, 76.78°W
Report Text: K2W6 190752Z AUTO 30003KT 10SM OVC100 01/M05 A3013 RMK AO1
Loading
Personal Weather Stations






























Interactive Weather Map New forecast layout! Learn more

10-Day Weather Forecast

Advertisements
Track Severe Weather on mobile